Time;durP1;ratioP1;P1;durP2;ratioP2;P2;SDS_P1;SDS_P2;PMS_P1;PMS_P2;Temp;Humidity;BMP_temperature;BMP_pressure;BME280_temperature;BME280_humidity;BME280_pressure;Samples;Min_cycle;Max_cycle;Signal;HPM_P1;HPM_P2
2022/11/22 01:03:01;;;;;;;10.40;5.60;;;;;;;4.14;78.69;94698.19;5009355;28;20186;-77
2022/11/22 01:05:26;;;;;;;8.27;4.93;;;;;;;4.13;78.36;94662.50;4992646;28;20866;-77
2022/11/22 01:07:52;;;;;;;12.27;6.68;;;;;;;4.13;78.02;94667.75;4993409;28;20042;-77
2022/11/22 01:10:17;;;;;;;10.13;5.68;;;;;;;4.45;77.87;94709.84;5027783;28;20427;-77
2022/11/22 01:12:43;;;;;;;9.52;5.93;;;;;;;4.46;77.80;94714.84;4995077;28;20064;-77
2022/11/22 01:15:09;;;;;;;8.98;6.93;;;;;;;4.43;76.95;94704.81;5010440;28;20037;-77
2022/11/22 01:17:35;;;;;;;6.90;5.07;;;;;;;4.48;77.30;94718.03;4999594;28;20045;-77
2022/11/22 01:20:00;;;;;;;6.90;5.32;;;;;;;4.35;77.04;94694.75;5011088;28;20515;-77
2022/11/22 01:22:26;;;;;;;8.98;5.50;;;;;;;4.16;77.59;94656.75;4991195;28;20160;-77
2022/11/22 01:24:51;;;;;;;7.07;5.38;;;;;;;4.39;77.53;94700.31;5022365;28;20075;-77
2022/11/22 01:27:16;;;;;;;7.25;5.13;;;;;;;4.43;77.94;94672.53;5024521;28;20049;-77
2022/11/22 01:29:42;;;;;;;6.88;5.43;;;;;;;4.56;77.50;94704.47;5024538;28;20129;-77
2022/11/22 01:32:07;;;;;;;9.77;5.97;;;;;;;3.65;77.34;94569.63;5010799;28;20133;-77
2022/11/22 01:34:33;;;;;;;10.75;5.80;;;;;;;3.94;77.77;94635.00;4994439;28;20049;-77
2022/11/22 01:36:58;;;;;;;9.25;6.00;;;;;;;4.37;78.13;94703.19;4992429;28;20038;-77
2022/11/22 01:39:24;;;;;;;10.25;6.40;;;;;;;3.84;78.19;94615.47;4992306;28;20050;-77
2022/11/22 01:41:50;;;;;;;8.48;5.78;;;;;;;4.17;77.32;94645.22;5012657;28;20098;-77
2022/11/22 01:44:30;;;;;;;8.07;5.55;;;;;;;4.46;77.69;94693.03;5014254;28;20172;-77
2022/11/22 01:47:16;;;;;;;10.45;6.20;;;;;;;4.45;77.76;94694.09;5014410;28;20589;-77
2022/11/22 01:49:47;;;;;;;8.32;5.75;;;;;;;4.41;77.08;94693.00;5013399;28;20052;-77
2022/11/22 01:52:19;;;;;;;8.15;5.90;;;;;;;3.84;76.75;94594.50;5006338;28;20050;-77
2022/11/22 01:54:49;;;;;;;6.85;4.82;;;;;;;4.12;76.81;94674.06;5015526;28;20480;-77
2022/11/22 01:57:18;;;;;;;9.02;6.15;;;;;;;3.93;77.62;94633.41;5016321;28;20050;-77
2022/11/22 01:59:49;;;;;;;10.18;6.45;;;;;;;4.32;77.19;94694.47;5007618;28;20041;-77
2022/11/22 02:02:14;;;;;;;9.32;6.20;;;;;;;4.17;77.92;94674.09;5012873;28;20062;-77
2022/11/22 02:04:41;;;;;;;6.63;5.78;;;;;;;4.18;77.78;94684.34;4984589;28;20504;-77
2022/11/22 02:07:18;;;;;;;9.85;5.75;;;;;;;4.34;77.52;94695.81;4979237;28;20141;-77
2022/11/22 02:09:46;;;;;;;8.45;6.15;;;;;;;4.14;77.33;94648.34;5004307;28;20038;-77
2022/11/22 02:12:12;;;;;;;7.72;5.82;;;;;;;4.00;78.11;94632.19;5000568;28;20046;-77
2022/11/22 02:14:39;;;;;;;8.40;6.25;;;;;;;4.41;78.50;94693.81;4989901;28;20052;-77
2022/11/22 02:17:05;;;;;;;7.50;6.03;;;;;;;3.96;77.06;94627.69;4995686;28;20571;-77
2022/11/22 02:19:35;;;;;;;11.73;6.47;;;;;;;4.29;76.78;94669.50;4992164;28;20046;-77
2022/11/22 02:22:11;;;;;;;7.75;6.00;;;;;;;4.58;77.01;94701.56;4989878;28;20433;-77
2022/11/22 02:24:44;;;;;;;9.75;5.53;;;;;;;4.68;76.63;94704.31;4977294;28;20590;-77
2022/11/22 02:27:10;;;;;;;8.07;5.90;;;;;;;4.81;76.52;94705.72;4993082;28;20085;-77
2022/11/22 02:29:36;;;;;;;10.70;6.15;;;;;;;4.64;76.31;94677.75;4997771;28;20469;-77
2022/11/22 02:32:02;;;;;;;8.55;5.88;;;;;;;4.40;75.40;94631.81;4996981;28;20058;-77
2022/11/22 02:34:27;;;;;;;9.07;5.95;;;;;;;4.92;75.26;94696.91;5001087;28;20042;-77
2022/11/22 02:36:53;;;;;;;9.02;6.35;;;;;;;5.01;75.54;94705.94;5000558;28;20046;-77
2022/11/22 02:39:26;;;;;;;9.73;6.80;;;;;;;5.00;75.22;94705.13;5003798;28;20407;-77
2022/11/22 02:41:52;;;;;;;8.88;6.30;;;;;;;4.80;74.56;94667.38;4980756;28;20151;-77
2022/11/22 02:44:19;;;;;;;11.35;6.50;;;;;;;4.87;75.16;94673.22;4995347;28;20579;-77
2022/11/22 02:46:50;;;;;;;9.43;6.55;;;;;;;4.96;74.84;94698.78;4982097;28;20112;-77
2022/11/22 02:49:17;;;;;;;8.32;5.97;;;;;;;4.97;74.77;94699.56;4998524;28;20041;-76
2022/11/22 02:51:43;;;;;;;10.55;5.85;;;;;;;4.57;75.33;94627.25;4994149;28;20061;-76
2022/11/22 02:54:08;;;;;;;8.50;6.30;;;;;;;4.13;75.72;94558.31;4973789;28;20050;-76
2022/11/22 02:56:34;;;;;;;8.18;5.78;;;;;;;4.41;76.11;94611.63;4991772;28;20038;-76
2022/11/22 02:58:59;;;;;;;8.90;6.32;;;;;;;4.92;75.42;94684.56;4994706;28;20129;-77
2022/11/22 03:01:25;;;;;;;7.82;6.15;;;;;;;4.49;76.18;94619.84;4978828;28;20050;-77
2022/11/22 03:03:50;;;;;;;6.90;5.30;;;;;;;4.26;75.85;94630.63;5030831;28;20058;-78
2022/11/22 03:06:15;;;;;;;13.45;8.07;;;;;;;4.64;75.99;94687.47;5000900;28;20080;-77
2022/11/22 03:08:41;;;;;;;9.55;5.82;;;;;;;4.05;76.72;94607.81;5011674;28;20476;-77
2022/11/22 03:11:06;;;;;;;14.57;6.22;;;;;;;4.58;76.83;94683.97;5011653;28;20038;-77
2022/11/22 03:13:31;;;;;;;12.95;6.90;;;;;;;4.27;77.01;94630.38;5003813;28;20048;-77
2022/11/22 03:15:57;;;;;;;12.02;6.60;;;;;;;4.53;77.39;94665.56;5011272;28;20038;-77
2022/11/22 03:18:22;;;;;;;13.73;6.40;;;;;;;4.28;76.70;94633.78;5011090;28;20045;-77
2022/11/22 03:20:48;;;;;;;12.70;6.90;;;;;;;4.06;76.89;94596.28;4996049;28;20073;-77
2022/11/22 03:23:13;;;;;;;8.75;6.13;;;;;;;4.53;76.49;94688.38;4994527;28;20038;-77
2022/11/22 03:25:39;;;;;;;10.77;6.85;;;;;;;4.06;75.84;94625.94;4993450;28;20038;-77
2022/11/22 03:28:04;;;;;;;9.00;5.75;;;;;;;4.00;76.24;94628.75;5011287;28;20085;-77
2022/11/22 03:30:30;;;;;;;9.43;6.20;;;;;;;4.22;76.43;94668.91;5010203;28;20048;-77
2022/11/22 03:32:55;;;;;;;10.60;6.10;;;;;;;3.73;76.59;94594.63;5000571;28;20046;-77
2022/11/22 03:35:21;;;;;;;8.45;6.15;;;;;;;4.23;76.65;94676.53;4993408;28;20084;-77
2022/11/22 03:37:46;;;;;;;8.38;6.40;;;;;;;4.28;77.32;94675.78;5006647;28;20049;-77
2022/11/22 03:40:12;;;;;;;8.90;6.45;;;;;;;4.16;77.57;94651.50;4992926;28;20046;-77
2022/11/22 03:42:37;;;;;;;9.52;6.65;;;;;;;4.06;77.63;94639.06;4993499;28;20052;-77
2022/11/22 03:45:03;;;;;;;9.77;7.00;;;;;;;4.32;77.44;94681.34;5007766;28;20144;-77
2022/11/22 03:47:29;;;;;;;10.45;7.10;;;;;;;3.89;77.80;94614.75;5014117;28;20064;-77
2022/11/22 03:49:54;;;;;;;10.30;7.07;;;;;;;3.93;77.25;94620.28;5005982;28;20046;-77
2022/11/22 03:52:19;;;;;;;11.40;7.07;;;;;;;4.03;77.27;94650.06;4992436;28;20153;-77
2022/11/22 03:54:45;;;;;;;12.85;6.93;;;;;;;4.31;77.37;94691.06;5025861;28;20069;-77
2022/11/22 03:57:10;;;;;;;10.50;6.85;;;;;;;4.07;77.51;94650.34;4993691;28;20045;-77
2022/11/22 03:59:35;;;;;;;9.15;6.40;;;;;;;4.15;77.04;94671.72;4992515;28;20038;-77
2022/11/22 04:02:01;;;;;;;13.85;7.68;;;;;;;4.21;76.97;94696.97;5016502;28;20424;-77
2022/11/22 04:04:26;;;;;;;9.40;6.45;;;;;;;4.00;76.72;94676.78;5000027;28;20423;-77
2022/11/22 04:06:52;;;;;;;9.40;6.82;;;;;;;3.76;76.45;94638.72;4993960;28;20604;-77
2022/11/22 04:09:17;;;;;;;10.77;6.35;;;;;;;3.81;76.53;94641.41;5002660;28;20057;-77
2022/11/22 04:11:43;;;;;;;8.18;5.97;;;;;;;3.72;76.81;94654.16;5015696;28;20204;-77
2022/11/22 04:16:54;;;;;;;9.05;6.78;;;;;;;3.40;76.76;94638.25;5000336;28;20049;-77
2022/11/22 04:19:20;;;;;;;10.30;7.00;;;;;;;3.95;76.84;94708.22;5010713;28;20045;-77
2022/11/22 04:21:45;;;;;;;9.75;6.93;;;;;;;3.69;76.86;94678.22;5021340;28;20630;-77
2022/11/22 04:26:56;;;;;;;12.52;6.82;;;;;;;3.94;77.31;94717.13;5010349;28;20053;-77
2022/11/22 04:29:22;;;;;;;11.15;6.28;;;;;;;3.94;77.93;94721.56;5010050;28;20121;-77
2022/11/22 04:34:34;;;;;;;9.82;6.82;;;;;;;3.29;77.17;94631.28;5015272;28;20129;-77
2022/11/22 04:37:00;;;;;;;11.68;7.80;;;;;;;3.15;77.33;94627.41;5015737;28;20042;-77
2022/11/22 04:39:26;;;;;;;16.90;9.18;;;;;;;3.45;77.33;94669.78;4993587;28;20042;-77
2022/11/22 04:44:39;;;;;;;14.00;7.93;;;;;;;3.79;77.28;94722.97;5016164;28;20579;-77
2022/11/22 04:44:40;;;;;;;12.65;7.97;;;;;;;3.78;77.65;94729.25;5002902;28;20108;-77
2022/11/22 04:47:11;;;;;;;14.25;9.25;;;;;;;3.37;77.36;94677.25;5004388;28;20064;-77
2022/11/22 04:49:37;;;;;;;17.57;13.37;;;;;;;3.16;77.44;94662.28;4997966;28;20104;-77
2022/11/22 04:54:47;;;;;;;14.38;9.60;;;;;;;3.22;77.68;94708.47;5009809;28;20044;-77
2022/11/22 04:57:13;;;;;;;20.55;13.32;;;;;;;3.49;77.70;94754.78;5010270;28;20595;-77
2022/11/22 04:59:38;;;;;;;20.05;11.88;;;;;;;3.33;77.60;94728.59;4991762;28;20045;-77
2022/11/22 05:02:03;;;;;;;20.73;11.70;;;;;;;3.07;77.54;94694.09;4988961;28;20077;-78
2022/11/22 05:04:29;;;;;;;17.58;11.40;;;;;;;3.19;78.02;94703.72;4991356;28;20108;-78
2022/11/22 05:06:55;;;;;;;17.20;10.07;;;;;;;3.59;78.23;94766.44;5010428;28;20046;-77
2022/11/22 05:09:21;;;;;;;18.25;12.32;;;;;;;3.32;78.20;94735.66;4989913;28;20042;-77
2022/11/22 05:11:46;;;;;;;15.00;10.43;;;;;;;3.23;78.60;94707.44;4986641;28;20057;-77
2022/11/22 05:14:12;;;;;;;26.23;13.15;;;;;;;3.62;79.29;94758.91;5009862;28;20045;-77
2022/11/22 05:16:39;;;;;;;31.10;13.95;;;;;;;3.44;79.35;94727.69;5011876;28;20068;-77
2022/11/22 05:19:04;;;;;;;27.25;14.60;;;;;;;3.71;79.58;94759.28;4990685;28;20120;-77
2022/11/22 05:21:29;;;;;;;29.77;13.95;;;;;;;3.74;79.78;94759.59;5005280;28;20034;-77
2022/11/22 05:23:55;;;;;;;24.98;12.93;;;;;;;3.65;80.11;94747.16;4990632;23;20790;-78
2022/11/22 05:26:26;;;;;;;20.10;11.55;;;;;;;3.81;80.37;94754.19;5016234;28;20161;-77
2022/11/22 05:28:56;;;;;;;28.92;11.77;;;;;;;3.78;79.55;94759.91;5013982;28;20045;-77
2022/11/22 05:31:23;;;;;;;25.17;12.87;;;;;;;3.85;79.70;94763.97;4994074;28;20112;-77
2022/11/22 05:33:50;;;;;;;18.17;11.40;;;;;;;3.89;79.73;94759.03;5007116;28;20315;-77
2022/11/22 05:36:17;;;;;;;20.88;12.02;;;;;;;3.91;79.42;94759.56;5019505;28;20064;-77
2022/11/22 05:38:42;;;;;;;16.00;10.80;;;;;;;3.78;78.70;94760.72;5018590;28;20468;-77
2022/11/22 05:41:11;;;;;;;21.13;11.93;;;;;;;3.85;78.81;94769.22;5004241;28;20076;-78
2022/11/22 05:43:37;;;;;;;25.77;11.68;;;;;;;3.79;78.86;94770.19;5003557;28;20883;-78
2022/11/22 05:46:11;;;;;;;31.48;11.95;;;;;;;3.57;78.86;94731.81;5006214;28;20083;-78
2022/11/22 05:48:38;;;;;;;21.98;13.50;;;;;;;3.87;79.08;94761.09;5000009;28;20037;-78
2022/11/22 05:51:06;;;;;;;21.85;12.68;;;;;;;3.73;79.06;94746.75;5019683;28;20373;-78
2022/11/22 05:53:32;;;;;;;21.05;13.15;;;;;;;3.87;78.87;94758.47;5002686;28;20041;-78
2022/11/22 05:56:03;;;;;;;28.67;13.85;;;;;;;3.88;79.07;94767.94;5005294;28;20037;-79
2022/11/22 05:58:29;;;;;;;21.63;13.43;;;;;;;3.64;78.73;94761.28;4996867;28;20514;-79
2022/11/22 06:00:54;;;;;;;20.83;14.02;;;;;;;3.52;79.07;94735.16;5002802;28;20038;-78
2022/11/22 06:03:20;;;;;;;24.10;15.80;;;;;;;3.71;78.91;94744.34;5016131;28;20115;-78
2022/11/22 06:05:50;;;;;;;27.00;16.90;;;;;;;3.60;79.03;94723.47;5017561;28;20047;-79
2022/11/22 06:08:16;;;;;;;64.68;33.05;;;;;;;3.02;78.90;94670.47;5016610;28;20467;-77
2022/11/22 06:10:41;;;;;;;49.55;27.10;;;;;;;3.30;79.51;94708.09;4998794;28;20096;-77
2022/11/22 06:13:07;;;;;;;49.08;24.90;;;;;;;3.70;79.37;94763.75;4990049;28;20041;-78
2022/11/22 06:15:32;;;;;;;40.50;25.10;;;;;;;3.72;79.22;94758.25;5012357;28;20051;-77
2022/11/22 06:17:57;;;;;;;32.70;19.25;;;;;;;3.47;79.43;94721.97;4992657;28;20320;-81
2022/11/22 06:20:23;;;;;;;26.80;16.67;;;;;;;3.24;79.27;94682.84;4993444;28;20515;-77
2022/11/22 06:22:48;;;;;;;26.67;15.02;;;;;;;3.41;80.19;94725.56;4990531;28;20050;-79
2022/11/22 06:25:14;;;;;;;26.85;14.98;;;;;;;3.63;79.92;94736.09;5018575;28;20703;-78
2022/11/22 06:27:39;;;;;;;27.85;15.85;;;;;;;3.71;80.04;94741.72;5016269;28;20376;-79
2022/11/22 06:30:05;;;;;;;23.70;15.32;;;;;;;3.73;80.18;94725.75;5014774;28;20042;-79
2022/11/22 06:32:32;;;;;;;28.85;16.88;;;;;;;3.87;80.76;94738.28;4999395;28;20041;-79
2022/11/22 06:34:58;;;;;;;28.98;16.40;;;;;;;3.45;80.32;94661.91;4995200;28;20397;-77
2022/11/22 06:37:23;;;;;;;24.65;14.73;;;;;;;4.17;80.38;94774.63;5010791;28;20428;-79
2022/11/22 06:39:49;;;;;;;25.15;14.95;;;;;;;3.93;81.06;94730.47;4996092;28;20129;-76
2022/11/22 06:42:14;;;;;;;22.42;14.23;;;;;;;4.14;81.06;94764.59;5008404;28;20228;-78
2022/11/22 06:44:39;;;;;;;23.58;14.77;;;;;;;3.94;80.72;94727.63;5002245;28;20419;-77
2022/11/22 06:47:05;;;;;;;23.88;14.63;;;;;;;3.98;80.48;94735.78;4994147;28;20538;-76
2022/11/22 06:49:30;;;;;;;26.00;12.90;;;;;;;3.89;79.72;94719.69;5005663;28;20056;-77
2022/11/22 06:51:56;;;;;;;18.25;9.48;;;;;;;4.01;79.32;94762.34;5017840;28;20617;-77
2022/11/22 06:54:21;;;;;;;19.52;10.68;;;;;;;4.29;79.14;94795.50;5008874;28;20114;-76
2022/11/22 06:56:47;;;;;;;18.38;10.50;;;;;;;4.34;79.34;94800.03;4996039;28;20790;-77
2022/11/22 06:59:12;;;;;;;19.73;11.30;;;;;;;4.39;79.42;94795.63;5014322;28;20670;-76
2022/11/22 07:01:37;;;;;;;16.23;10.52;;;;;;;4.20;78.67;94762.81;4995254;28;20127;-77
2022/11/22 07:04:04;;;;;;;22.35;13.07;;;;;;;4.20;79.07;94753.13;5010084;28;20418;-78
2022/11/22 07:06:33;;;;;;;21.85;13.15;;;;;;;4.24;79.01;94751.63;4997493;28;20041;-77
2022/11/22 07:09:00;;;;;;;19.40;12.77;;;;;;;4.46;78.53;94775.25;5015243;28;20735;-77
2022/11/22 07:11:28;;;;;;;24.70;14.52;;;;;;;4.28;79.41;94765.81;4991268;28;20137;-77
2022/11/22 07:13:54;;;;;;;25.42;12.85;;;;;;;3.80;79.12;94672.09;4999553;28;20079;-79
2022/11/22 07:16:21;;;;;;;21.38;12.90;;;;;;;4.39;78.56;94747.59;4976991;28;20041;-76
2022/11/22 07:18:47;;;;;;;30.63;14.40;;;;;;;4.64;79.07;94784.66;5011045;28;20210;-77
2022/11/22 07:21:17;;;;;;;22.30;13.77;;;;;;;4.69;78.38;94789.94;4997138;28;20041;-78
2022/11/22 07:23:44;;;;;;;24.70;14.05;;;;;;;4.08;78.22;94697.34;5017841;28;20053;-80
2022/11/22 07:26:10;;;;;;;27.88;15.45;;;;;;;4.35;78.66;94749.88;4994938;28;21017;-78
2022/11/22 07:28:36;;;;;;;23.00;13.82;;;;;;;4.72;78.75;94784.22;5011779;28;20133;-78
2022/11/22 07:31:04;;;;;;;22.40;13.95;;;;;;;4.39;78.64;94732.63;5018451;28;20042;-76
2022/11/22 07:33:30;;;;;;;24.15;13.77;;;;;;;4.81;78.75;94766.16;4996314;28;21042;-77
2022/11/22 07:36:03;;;;;;;22.02;14.15;;;;;;;4.87;78.76;94778.31;5015730;28;20472;-78
2022/11/22 07:38:28;;;;;;;22.10;13.85;;;;;;;4.42;78.15;94691.97;5009897;28;20415;-77
2022/11/22 07:40:54;;;;;;;23.88;13.98;;;;;;;4.38;78.17;94670.66;5014000;28;20042;-78
2022/11/22 07:43:19;;;;;;;20.92;12.98;;;;;;;4.86;78.50;94738.13;5012651;28;20052;-78
2022/11/22 07:45:44;;;;;;;25.02;12.90;;;;;;;4.31;77.76;94656.94;5013413;28;20052;-78
2022/11/22 07:48:13;;;;;;;20.13;12.68;;;;;;;4.34;78.42;94637.28;5010782;28;20536;-79
2022/11/22 07:50:40;;;;;;;21.20;13.48;;;;;;;5.01;78.47;94722.50;4994735;28;20491;-78
2022/11/22 07:53:09;;;;;;;22.80;14.05;;;;;;;4.81;78.08;94687.34;5006932;28;20288;-77
2022/11/22 07:55:35;;;;;;;24.40;13.50;;;;;;;4.67;77.32;94700.09;4991216;28;20079;-78
2022/11/22 07:58:02;;;;;;;29.40;15.45;;;;;;;5.04;77.65;94742.22;5008807;28;20052;-77
2022/11/22 08:00:27;;;;;;;32.42;16.90;;;;;;;5.00;77.43;94746.38;4997077;28;20042;-77
2022/11/22 08:02:53;;;;;;;31.73;17.77;;;;;;;5.23;77.83;94755.78;5000374;28;20053;-77
2022/11/22 08:05:19;;;;;;;27.98;17.77;;;;;;;5.47;78.09;94764.16;4999894;28;20045;-77
2022/11/22 08:07:49;;;;;;;34.63;20.08;;;;;;;4.76;77.81;94645.28;5004303;28;20427;-77
2022/11/22 08:10:15;;;;;;;30.23;18.80;;;;;;;5.42;77.74;94759.63;4994680;28;20060;-77
2022/11/22 08:12:40;;;;;;;33.67;19.00;;;;;;;5.52;77.15;94764.97;4986246;28;20369;-77
2022/11/22 08:15:06;;;;;;;53.38;23.35;;;;;;;5.37;77.64;94754.31;5010558;28;20053;-76
2022/11/22 08:17:32;;;;;;;34.05;19.77;;;;;;;5.49;76.75;94752.34;4996565;28;20044;-76
2022/11/22 08:19:57;;;;;;;31.98;18.27;;;;;;;5.16;77.01;94694.75;5014107;28;20511;-78
2022/11/22 08:22:23;;;;;;;33.65;19.15;;;;;;;5.32;77.25;94733.25;5001589;28;20486;-76
2022/11/22 08:24:48;;;;;;;30.33;18.38;;;;;;;5.10;77.13;94696.56;4999889;28;20057;-77
2022/11/22 08:27:13;;;;;;;33.03;18.00;;;;;;;5.63;77.28;94753.50;5013066;28;20045;-76
2022/11/22 08:29:39;;;;;;;34.63;20.75;;;;;;;5.59;77.69;94752.41;5014294;28;20045;-76
2022/11/22 08:32:04;;;;;;;38.88;21.88;;;;;;;5.18;77.74;94676.91;5004087;28;20158;-77
2022/11/22 08:34:30;;;;;;;36.70;19.25;;;;;;;5.03;78.09;94667.81;5002183;28;20084;-76
2022/11/22 08:36:55;;;;;;;29.90;19.27;;;;;;;5.03;77.66;94657.31;5006431;28;20042;-77
2022/11/22 08:39:23;;;;;;;32.53;18.88;;;;;;;5.52;78.19;94728.16;4996184;28;20041;-77
2022/11/22 08:41:49;;;;;;;34.13;18.30;;;;;;;5.44;79.51;94679.44;5015442;28;20080;-77
2022/11/22 08:44:14;;;;;;;32.17;18.17;;;;;;;5.67;78.53;94704.56;5003073;28;20140;-77
2022/11/22 08:46:39;;;;;;;31.90;18.77;;;;;;;5.46;78.44;94657.34;5018079;28;20138;-77
2022/11/22 08:49:06;;;;;;;28.08;17.30;;;;;;;5.64;78.96;94659.59;5009967;28;20041;-77
2022/11/22 08:51:32;;;;;;;23.98;15.43;;;;;;;5.67;78.25;94645.91;5002339;28;20065;-79
2022/11/22 08:53:57;;;;;;;26.85;16.70;;;;;;;5.39;77.15;94620.78;5011222;28;20045;-80
2022/11/22 08:56:23;;;;;;;25.42;15.70;;;;;;;5.60;77.08;94629.56;4994616;28;20049;-77
2022/11/22 08:58:48;;;;;;;22.55;15.25;;;;;;;6.02;76.56;94688.22;5015875;28;20471;-77
2022/11/22 09:01:16;;;;;;;27.15;17.83;;;;;;;6.24;76.75;94705.69;4995960;28;20045;-77
2022/11/22 09:03:43;;;;;;;32.85;19.00;;;;;;;5.73;76.79;94592.25;4982652;28;20053;-79
2022/11/22 09:06:18;;;;;;;29.75;17.02;;;;;;;6.36;76.43;94699.13;5001067;28;20045;-76
2022/11/22 09:08:43;;;;;;;28.83;17.73;;;;;;;6.16;76.26;94651.69;5007695;28;20852;-78
2022/11/22 09:11:18;;;;;;;28.80;17.67;;;;;;;6.32;76.31;94655.16;5017471;28;20046;-81
2022/11/22 09:13:44;;;;;;;33.10;18.13;;;;;;;6.28;75.53;94638.28;5002232;28;20505;-80
2022/11/22 09:16:28;;;;;;;37.80;20.02;;;;;;;6.68;76.47;94690.28;5019423;28;20046;-80
2022/11/22 09:18:54;;;;;;;34.10;19.13;;;;;;;6.52;76.41;94639.38;5003265;28;20270;-81
2022/11/22 09:21:19;;;;;;;27.67;17.58;;;;;;;6.65;75.05;94653.91;5020674;28;20072;-81
2022/11/22 09:23:47;;;;;;;26.73;17.50;;;;;;;6.83;75.28;94693.72;5000532;28;20062;-81
2022/11/22 09:26:18;;;;;;;29.17;17.25;;;;;;;6.69;75.10;94623.34;5017373;28;20111;-81
2022/11/22 09:28:45;;;;;;;40.78;18.73;;;;;;;6.94;74.62;94684.78;5019308;28;20049;-81
2022/11/22 09:31:17;;;;;;;32.22;18.63;;;;;;;7.14;74.54;94688.50;4995021;28;20543;-81
2022/11/22 09:33:46;;;;;;;30.70;17.77;;;;;;;7.27;74.42;94685.31;5003528;28;20041;-81
2022/11/22 09:36:26;;;;;;;33.42;17.27;;;;;;;7.10;73.27;94682.13;5016473;28;20618;-81
2022/11/22 09:38:52;;;;;;;23.48;14.15;;;;;;;6.97;73.27;94623.63;5020667;28;20528;-80
2022/11/22 09:41:38;;;;;;;23.33;15.48;;;;;;;7.33;73.76;94676.34;5012920;28;20343;-82
2022/11/22 09:44:43;;;;;;;22.90;14.48;;;;;;;7.46;72.63;94675.81;5022832;28;20504;-83
2022/11/22 09:47:34;;;;;;;21.95;13.85;;;;;;;7.61;72.39;94665.25;5018803;28;20107;-80
2022/11/22 09:50:08;;;;;;;20.40;12.70;;;;;;;7.66;71.87;94662.59;4996038;28;20164;-82
2022/11/22 09:52:53;;;;;;;20.17;12.18;;;;;;;7.30;70.80;94601.19;5029241;28;20045;-81
2022/11/22 09:55:31;;;;;;;20.05;12.93;;;;;;;7.62;70.44;94666.03;5021845;28;20041;-84
2022/11/22 09:58:21;;;;;;;23.67;14.48;;;;;;;7.65;70.87;94663.63;5023363;28;20077;-80
2022/11/22 10:00:47;;;;;;;21.20;13.70;;;;;;;6.98;71.12;94566.41;5011628;28;20045;-80
2022/11/22 10:03:24;;;;;;;27.75;17.40;;;;;;;7.53;71.72;94659.72;5002321;28;20064;-81
2022/11/22 10:05:56;;;;;;;29.95;19.15;;;;;;;7.43;71.93;94657.09;5023435;28;20052;-81
2022/11/22 10:08:31;;;;;;;33.95;21.40;;;;;;;7.56;71.63;94648.59;5021191;28;20388;-81
2022/11/22 10:10:59;;;;;;;38.13;20.17;;;;;;;7.08;71.78;94603.31;5013006;28;20049;-81
2022/11/22 10:13:51;;;;;;;29.33;18.55;;;;;;;7.35;71.54;94627.53;5005783;28;20554;-81
2022/11/22 10:17:14;;;;;;;28.10;15.35;;;;;;;7.23;70.64;94576.94;5017874;28;20578;-83
2022/11/22 10:19:55;;;;;;;27.35;15.00;;;;;;;7.54;71.50;94613.81;4946228;28;20118;-81
2022/11/22 10:22:29;;;;;;;21.70;13.85;;;;;;;7.03;71.22;94515.50;5006383;28;20536;-82
2022/11/22 10:24:57;;;;;;;22.70;12.68;;;;;;;7.33;71.14;94544.44;5004112;28;20154;-80
2022/11/22 10:27:22;;;;;;;18.48;12.82;;;;;;;7.75;71.40;94613.47;5016570;28;20057;-82
2022/11/22 10:30:12;;;;;;;17.58;12.35;;;;;;;7.86;71.36;94608.16;5022448;28;20561;-82
2022/11/22 10:33:03;;;;;;;20.98;12.48;;;;;;;7.55;70.87;94552.81;5019767;28;20041;-80
2022/11/22 10:36:07;;;;;;;18.73;12.13;;;;;;;7.97;70.40;94596.50;4998092;28;20041;-82
2022/11/22 10:38:41;;;;;;;29.48;15.70;;;;;;;7.83;69.98;94598.13;4984616;28;20091;-84
2022/11/22 10:41:37;;;;;;;17.33;11.45;;;;;;;7.98;70.08;94579.59;5008376;28;20392;-82
2022/11/22 10:44:02;;;;;;;19.05;11.02;;;;;;;8.08;69.41;94580.34;5004146;28;20061;-83
2022/11/22 10:46:40;;;;;;;15.38;9.15;;;;;;;7.34;68.10;94498.56;5010174;28;20041;-82
2022/11/22 10:49:14;;;;;;;19.48;9.02;;;;;;;8.10;68.53;94580.06;5019143;28;20129;-82
2022/11/22 10:52:01;;;;;;;14.13;9.48;;;;;;;8.08;69.16;94582.19;4984858;28;20091;-82
2022/11/22 10:54:46;;;;;;;13.75;9.82;;;;;;;8.20;69.38;94576.56;5009946;28;20157;-82
2022/11/22 10:57:17;;;;;;;16.45;9.52;;;;;;;8.22;68.86;94575.25;5022107;28;20038;-82
2022/11/22 10:59:54;;;;;;;14.57;9.52;;;;;;;8.18;68.83;94565.47;4996153;28;20154;-86
2022/11/22 11:02:35;;;;;;;13.32;9.05;;;;;;;8.16;68.30;94559.72;4993089;28;20607;-82
2022/11/22 11:05:06;;;;;;;13.82;8.75;;;;;;;7.49;68.23;94469.47;5024437;28;20048;-81
2022/11/22 11:07:32;;;;;;;15.98;9.23;;;;;;;7.56;67.96;94475.25;5010058;28;20054;-83
2022/11/22 11:10:16;;;;;;;14.93;9.98;;;;;;;7.80;68.24;94508.91;5012953;28;20132;-82
2022/11/22 11:13:00;;;;;;;16.38;10.50;;;;;;;7.82;68.09;94525.28;5029141;28;20554;-81
2022/11/22 11:15:46;;;;;;;19.90;11.25;;;;;;;7.88;67.22;94558.50;5016183;28;20467;-83
2022/11/22 11:18:39;;;;;;;21.10;10.95;;;;;;;7.16;67.95;94423.47;4985152;28;20061;-82
2022/11/22 11:21:06;;;;;;;22.77;11.25;;;;;;;7.63;67.89;94517.97;5044656;28;20057;-85
2022/11/22 11:23:35;;;;;;;24.92;10.55;;;;;;;7.65;67.31;94518.50;5020235;28;20045;-83
2022/11/22 11:26:30;;;;;;;23.98;11.48;;;;;;;8.04;67.77;94565.31;5025517;28;20117;-81
2022/11/22 11:29:14;;;;;;;26.45;13.45;;;;;;;8.05;68.65;94565.03;5018509;28;20151;-83
2022/11/22 11:32:03;;;;;;;17.58;10.75;;;;;;;7.51;67.67;94498.22;5018032;28;20041;-80
2022/11/22 11:34:29;;;;;;;19.58;11.63;;;;;;;7.21;67.29;94467.50;5013111;28;20045;-81
2022/11/22 11:36:58;;;;;;;20.70;11.95;;;;;;;7.83;67.62;94546.13;5024063;28;20058;-80
2022/11/22 11:39:29;;;;;;;17.95;10.95;;;;;;;7.86;67.50;94539.53;5001157;28;20637;-81
2022/11/22 11:41:55;;;;;;;22.83;11.88;;;;;;;7.86;68.23;94537.66;5018898;28;20038;-81
2022/11/22 11:44:30;;;;;;;25.48;11.85;;;;;;;7.36;67.51;94467.44;5020335;28;20045;-81
2022/11/22 11:46:58;;;;;;;27.00;11.55;;;;;;;6.96;67.83;94400.59;5033863;28;20041;-80
2022/11/22 11:49:33;;;;;;;21.67;11.65;;;;;;;7.01;67.70;94397.16;5018740;28;20702;-80
2022/11/22 11:52:20;;;;;;;22.67;11.43;;;;;;;7.48;68.36;94469.75;5018537;28;20048;-80
2022/11/22 11:54:53;;;;;;;15.75;10.23;;;;;;;7.36;68.35;94443.69;5018633;28;20057;-81
2022/11/22 11:57:33;;;;;;;22.40;11.80;;;;;;;7.84;68.13;94516.03;5007838;28;20049;-81
2022/11/22 12:00:02;;;;;;;19.17;11.97;;;;;;;7.37;68.94;94437.34;5021664;28;20036;-81
2022/11/22 12:02:45;;;;;;;16.52;11.02;;;;;;;7.27;68.73;94427.63;5013540;28;20412;-81
2022/11/22 12:05:13;;;;;;;24.27;11.52;;;;;;;7.86;69.83;94515.78;5025378;28;20490;-80
2022/11/22 12:07:44;;;;;;;19.55;10.60;;;;;;;6.98;69.52;94385.31;5016186;28;20195;-81
2022/11/22 12:10:35;;;;;;;17.63;9.77;;;;;;;7.83;69.42;94516.31;5010134;28;20521;-81
2022/11/22 12:13:19;;;;;;;19.45;9.60;;;;;;;7.82;69.00;94501.53;5021301;28;20048;-82
2022/11/22 12:16:09;;;;;;;14.10;9.65;;;;;;;7.75;70.10;94512.38;5005936;28;20049;-82
2022/11/22 12:18:49;;;;;;;17.88;10.13;;;;;;;7.78;71.00;94503.16;5016814;28;20403;-81
2022/11/22 12:21:52;;;;;;;18.35;11.60;;;;;;;7.72;71.71;94503.16;4989833;28;20568;-82
2022/11/22 12:24:32;;;;;;;18.17;11.23;;;;;;;7.26;71.96;94410.22;4995569;28;20050;-82
2022/11/22 12:26:57;;;;;;;19.27;11.50;;;;;;;7.60;73.35;94463.09;4987072;28;20564;-82
2022/11/22 12:29:23;;;;;;;21.73;11.23;;;;;;;6.84;73.44;94354.53;5001434;28;20073;-81
2022/11/22 12:31:58;;;;;;;18.90;11.07;;;;;;;7.45;74.52;94447.34;5003361;28;20769;-82
2022/11/22 12:34:29;;;;;;;21.30;11.30;;;;;;;7.40;75.14;94476.38;5016107;28;20168;-82
2022/11/22 12:37:02;;;;;;;20.77;12.38;;;;;;;7.36;74.90;94476.13;5012885;28;20048;-82
2022/11/22 12:39:28;;;;;;;18.35;11.18;;;;;;;7.29;75.03;94454.53;5016814;28;20042;-82
2022/11/22 12:42:01;;;;;;;21.60;13.45;;;;;;;7.23;75.94;94441.66;5003743;28;20113;-82
2022/11/22 12:44:31;;;;;;;28.25;16.25;;;;;;;7.24;75.86;94480.16;5004126;28;20078;-83
2022/11/22 12:47:07;;;;;;;36.67;21.30;;;;;;;6.71;76.49;94387.53;5007438;28;20125;-82
2022/11/22 12:49:54;;;;;;;41.35;22.40;;;;;;;6.97;76.41;94425.91;5007250;28;20082;-82
2022/11/22 12:52:31;;;;;;;39.25;21.50;;;;;;;6.85;76.98;94393.81;4980030;28;20132;-83
2022/11/22 12:55:15;;;;;;;38.03;21.20;;;;;;;7.31;76.73;94457.69;5000437;28;20212;-82